sensor_id;sensor_type;location;lat;lon;timestamp;pressure;altitude;pressure_sealevel;temperature;humidity
40490;BME280;26196;52.302;10.572;2023-05-19T00:00:41;101799.03;;;15.71;39.18
40490;BME280;26196;52.302;10.572;2023-05-19T00:04:44;101804.44;;;15.67;39.43
40490;BME280;26196;52.302;10.572;2023-05-19T00:08:44;101793.88;;;15.67;39.47
40490;BME280;26196;52.302;10.572;2023-05-19T00:12:44;101800.97;;;15.63;39.63
40490;BME280;26196;52.302;10.572;2023-05-19T00:16:45;101792.38;;;15.57;39.37
40490;BME280;26196;52.302;10.572;2023-05-19T00:20:46;101803.81;;;15.57;39.83
40490;BME280;26196;52.302;10.572;2023-05-19T00:24:46;101798.53;;;15.57;39.60
40490;BME280;26196;52.302;10.572;2023-05-19T00:28:48;101804.75;;;15.54;39.26
40490;BME280;26196;52.302;10.572;2023-05-19T00:32:48;101797.69;;;15.55;39.62
40490;BME280;26196;52.302;10.572;2023-05-19T00:36:48;101790.72;;;15.52;39.47
40490;BME280;26196;52.302;10.572;2023-05-19T00:40:49;101791.69;;;15.50;39.47
40490;BME280;26196;52.302;10.572;2023-05-19T00:44:50;101786.50;;;15.47;39.64
40490;BME280;26196;52.302;10.572;2023-05-19T00:48:51;101787.38;;;15.46;39.74
40490;BME280;26196;52.302;10.572;2023-05-19T00:52:52;101790.00;;;15.46;39.61
40490;BME280;26196;52.302;10.572;2023-05-19T00:56:55;101784.81;;;15.43;39.78
40490;BME280;26196;52.302;10.572;2023-05-19T01:00:58;101783.97;;;15.42;39.67
40490;BME280;26196;52.302;10.572;2023-05-19T01:05:02;101779.63;;;15.40;39.49
40490;BME280;26196;52.302;10.572;2023-05-19T01:09:03;101776.16;;;15.38;39.60
40490;BME280;26196;52.302;10.572;2023-05-19T01:13:04;101786.72;;;15.38;39.38
40490;BME280;26196;52.302;10.572;2023-05-19T01:17:33;101785.00;;;15.37;39.40
40490;BME280;26196;52.302;10.572;2023-05-19T01:30:22;101779.06;;;15.28;39.54
40490;BME280;26196;52.302;10.572;2023-05-19T01:34:25;101780.88;;;15.26;39.60
40490;BME280;26196;52.302;10.572;2023-05-19T01:38:26;101774.78;;;15.24;39.66
40490;BME280;26196;52.302;10.572;2023-05-19T01:42:27;101774.78;;;15.24;39.78
40490;BME280;26196;52.302;10.572;2023-05-19T01:46:29;101767.91;;;15.17;39.48
40490;BME280;26196;52.302;10.572;2023-05-19T01:50:30;101777.53;;;15.20;39.59
40490;BME280;26196;52.302;10.572;2023-05-19T01:54:30;101785.50;;;15.18;39.38
40490;BME280;26196;52.302;10.572;2023-05-19T01:58:45;101782.84;;;15.18;39.27
40490;BME280;26196;52.302;10.572;2023-05-19T02:11:18;101776.06;;;15.09;39.50
40490;BME280;26196;52.302;10.572;2023-05-19T02:15:24;101775.13;;;15.12;39.58
40490;BME280;26196;52.302;10.572;2023-05-19T02:19:31;101779.56;;;15.10;40.04
40490;BME280;26196;52.302;10.572;2023-05-19T02:23:32;101779.50;;;15.12;39.72
40490;BME280;26196;52.302;10.572;2023-05-19T02:27:36;101777.81;;;15.09;39.87
40490;BME280;26196;52.302;10.572;2023-05-19T02:31:37;101785.78;;;15.06;40.28
40490;BME280;26196;52.302;10.572;2023-05-19T02:35:37;101791.13;;;15.04;40.17
40490;BME280;26196;52.302;10.572;2023-05-19T02:39:38;101781.44;;;15.05;39.92
40490;BME280;26196;52.302;10.572;2023-05-19T02:43:38;101783.22;;;15.04;39.91
40490;BME280;26196;52.302;10.572;2023-05-19T02:47:38;101785.88;;;15.03;39.79
40490;BME280;26196;52.302;10.572;2023-05-19T02:51:40;101778.94;;;14.99;40.17
40490;BME280;26196;52.302;10.572;2023-05-19T02:55:41;101773.66;;;14.99;40.15
40490;BME280;26196;52.302;10.572;2023-05-19T02:59:41;101764.16;;;14.93;40.08
40490;BME280;26196;52.302;10.572;2023-05-19T03:03:42;101770.28;;;14.94;40.04
40490;BME280;26196;52.302;10.572;2023-05-19T03:07:42;101776.44;;;14.94;39.93
40490;BME280;26196;52.302;10.572;2023-05-19T03:11:42;101774.69;;;14.93;39.81
40490;BME280;26196;52.302;10.572;2023-05-19T03:15:43;101773.00;;;14.91;39.58
40490;BME280;26196;52.302;10.572;2023-05-19T03:19:44;101765.25;;;14.84;40.20
40490;BME280;26196;52.302;10.572;2023-05-19T03:23:44;101774.03;;;14.85;39.89
40490;BME280;26196;52.302;10.572;2023-05-19T03:27:44;101773.13;;;14.86;39.89
40490;BME280;26196;52.302;10.572;2023-05-19T03:31:45;101779.34;;;14.83;39.75
40490;BME280;26196;52.302;10.572;2023-05-19T03:35:45;101779.34;;;14.83;39.63
40490;BME280;26196;52.302;10.572;2023-05-19T03:39:45;101778.53;;;14.80;39.81
40490;BME280;26196;52.302;10.572;2023-05-19T03:43:46;101779.47;;;14.77;39.18
40490;BME280;26196;52.302;10.572;2023-05-19T03:47:46;101783.03;;;14.76;39.75
40490;BME280;26196;52.302;10.572;2023-05-19T03:51:46;101781.28;;;14.75;39.33
40490;BME280;26196;52.302;10.572;2023-05-19T03:55:47;101779.63;;;14.71;39.57
40490;BME280;26196;52.302;10.572;2023-05-19T03:59:48;101779.63;;;14.71;39.28
40490;BME280;26196;52.302;10.572;2023-05-19T04:03:48;101776.16;;;14.69;39.59
40490;BME280;26196;52.302;10.572;2023-05-19T04:07:49;101775.38;;;14.65;39.54
40490;BME280;26196;52.302;10.572;2023-05-19T04:11:50;101785.97;;;14.62;39.41
40490;BME280;26196;52.302;10.572;2023-05-19T04:15:50;101774.72;;;14.56;39.43
40490;BME280;26196;52.302;10.572;2023-05-19T04:19:52;101784.25;;;14.61;39.52
40490;BME280;26196;52.302;10.572;2023-05-19T04:23:52;101784.41;;;14.55;39.25
40490;BME280;26196;52.302;10.572;2023-05-19T04:27:52;101780.84;;;14.58;39.48
40490;BME280;26196;52.302;10.572;2023-05-19T04:31:56;101773.00;;;14.55;39.39
40490;BME280;26196;52.302;10.572;2023-05-19T04:35:56;101782.63;;;14.56;39.72
40490;BME280;26196;52.302;10.572;2023-05-19T04:39:57;101794.88;;;14.58;39.57
40490;BME280;26196;52.302;10.572;2023-05-19T04:43:57;101788.69;;;14.59;39.70
40490;BME280;26196;52.302;10.572;2023-05-19T04:47:58;101792.22;;;14.60;39.87
40490;BME280;26196;52.302;10.572;2023-05-19T04:51:58;101786.81;;;14.64;39.40
40490;BME280;26196;52.302;10.572;2023-05-19T04:55:58;101789.44;;;14.64;40.08
40490;BME280;26196;52.302;10.572;2023-05-19T05:00:04;101779.84;;;14.62;39.55
40490;BME280;26196;52.302;10.572;2023-05-19T05:04:11;101786.88;;;14.63;40.13
40490;BME280;26196;52.302;10.572;2023-05-19T05:08:11;101782.59;;;14.57;40.10
40490;BME280;26196;52.302;10.572;2023-05-19T05:12:14;101787.81;;;14.60;40.21
40490;BME280;26196;52.302;10.572;2023-05-19T05:16:15;101791.31;;;14.59;40.63
40490;BME280;26196;52.302;10.572;2023-05-19T05:20:16;101782.59;;;14.57;40.58
40490;BME280;26196;52.302;10.572;2023-05-19T05:24:16;101788.69;;;14.59;40.57
40490;BME280;26196;52.302;10.572;2023-05-19T05:28:16;101787.75;;;14.62;40.50
40490;BME280;26196;52.302;10.572;2023-05-19T05:32:17;101787.75;;;14.62;40.85
40490;BME280;26196;52.302;10.572;2023-05-19T05:36:17;101762.47;;;14.55;40.86
40490;BME280;26196;52.302;10.572;2023-05-19T05:40:18;101771.94;;;14.62;40.33
40490;BME280;26196;52.302;10.572;2023-05-19T05:44:18;101778.81;;;14.68;40.86
40490;BME280;26196;52.302;10.572;2023-05-19T05:48:19;101774.56;;;14.62;41.00
40490;BME280;26196;52.302;10.572;2023-05-19T05:52:20;101772.69;;;14.67;40.82
40490;BME280;26196;52.302;10.572;2023-05-19T05:56:21;101775.31;;;14.69;40.77
40490;BME280;26196;52.302;10.572;2023-05-19T06:00:21;101765.78;;;14.63;40.97
40490;BME280;26196;52.302;10.572;2023-05-19T06:04:22;101775.22;;;14.72;41.09
40490;BME280;26196;52.302;10.572;2023-05-19T06:08:22;101780.56;;;14.69;41.45
40490;BME280;26196;52.302;10.572;2023-05-19T06:12:22;101785.84;;;14.69;41.37
40490;BME280;26196;52.302;10.572;2023-05-19T06:16:23;101776.28;;;14.64;41.15
40490;BME280;26196;52.302;10.572;2023-05-19T06:20:23;101758.06;;;14.55;41.15
40490;BME280;26196;52.302;10.572;2023-05-19T06:24:23;101786.59;;;14.74;41.46
40490;BME280;26196;52.302;10.572;2023-05-19T06:28:24;101784.91;;;14.71;41.59
40490;BME280;26196;52.302;10.572;2023-05-19T06:32:24;101795.38;;;14.74;42.05
40490;BME280;26196;52.302;10.572;2023-05-19T06:36:24;101790.97;;;14.75;41.72
40490;BME280;26196;52.302;10.572;2023-05-19T06:40:25;101791.03;;;14.72;41.49
40490;BME280;26196;52.302;10.572;2023-05-19T06:44:25;101794.53;;;14.72;42.00
40490;BME280;26196;52.302;10.572;2023-05-19T06:48:25;101798.91;;;14.73;41.70
40490;BME280;26196;52.302;10.572;2023-05-19T06:52:26;101798.84;;;14.76;41.71
40490;BME280;26196;52.302;10.572;2023-05-19T06:56:26;101797.03;;;14.78;41.61
40490;BME280;26196;52.302;10.572;2023-05-19T07:00:27;101799.69;;;14.78;41.83
40490;BME280;26196;52.302;10.572;2023-05-19T07:04:27;101796.09;;;14.81;41.96
40490;BME280;26196;52.302;10.572;2023-05-19T07:08:27;101796.91;;;14.83;42.20
40490;BME280;26196;52.302;10.572;2023-05-19T07:12:28;101789.88;;;14.83;41.95
40490;BME280;26196;52.302;10.572;2023-05-19T07:16:28;101791.53;;;14.87;42.16
40490;BME280;26196;52.302;10.572;2023-05-19T07:20:29;101760.28;;;14.72;41.96
40490;BME280;26196;52.302;10.572;2023-05-19T07:24:29;101774.78;;;14.90;42.07
40490;BME280;26196;52.302;10.572;2023-05-19T07:28:30;101775.63;;;14.91;42.07
40490;BME280;26196;52.302;10.572;2023-05-19T07:32:30;101779.97;;;14.93;42.51
40490;BME280;26196;52.302;10.572;2023-05-19T07:36:31;101774.69;;;14.93;42.09
40490;BME280;26196;52.302;10.572;2023-05-19T07:40:31;101771.97;;;14.96;42.03
40490;BME280;26196;52.302;10.572;2023-05-19T07:44:32;101764.94;;;14.97;42.30
40490;BME280;26196;52.302;10.572;2023-05-19T07:48:33;101757.91;;;14.97;42.28
40490;BME280;26196;52.302;10.572;2023-05-19T07:52:34;101761.31;;;15.01;41.92
40490;BME280;26196;52.302;10.572;2023-05-19T07:56:34;101746.50;;;14.97;42.29
40490;BME280;26196;52.302;10.572;2023-05-19T08:00:34;101757.72;;;15.05;42.66
40490;BME280;26196;52.302;10.572;2023-05-19T08:04:35;101750.63;;;15.07;42.75
40490;BME280;26196;52.302;10.572;2023-05-19T08:08:36;101761.94;;;15.10;42.12
40490;BME280;26196;52.302;10.572;2023-05-19T08:12:36;101754.88;;;15.13;43.15
40490;BME280;26196;52.302;10.572;2023-05-19T08:16:37;101754.72;;;15.17;42.48
40490;BME280;26196;52.302;10.572;2023-05-19T08:20:37;101754.66;;;15.20;43.06
40490;BME280;26196;52.302;10.572;2023-05-19T08:24:37;101753.63;;;15.26;42.71
40490;BME280;26196;52.302;10.572;2023-05-19T08:28:38;101737.06;;;15.21;43.09
40490;BME280;26196;52.302;10.572;2023-05-19T08:32:38;101754.38;;;15.31;42.73
40490;BME280;26196;52.302;10.572;2023-05-19T08:36:39;101750.78;;;15.34;42.74
40490;BME280;26196;52.302;10.572;2023-05-19T08:40:41;101748.06;;;15.37;42.95
40490;BME280;26196;52.302;10.572;2023-05-19T08:44:41;101745.34;;;15.40;42.75
40490;BME280;26196;52.302;10.572;2023-05-19T08:48:43;101739.19;;;15.41;42.71
40490;BME280;26196;52.302;10.572;2023-05-19T08:52:52;101740.81;;;15.45;42.76
40490;BME280;26196;52.302;10.572;2023-05-19T08:56:56;101734.53;;;15.49;42.87
40490;BME280;26196;52.302;10.572;2023-05-19T09:00:58;101731.75;;;15.53;43.42
40490;BME280;26196;52.302;10.572;2023-05-19T09:04:59;101725.63;;;15.53;43.42
40490;BME280;26196;52.302;10.572;2023-05-19T09:09:00;101722.03;;;15.56;43.89
40490;BME280;26196;52.302;10.572;2023-05-19T09:13:00;101720.19;;;15.59;43.81
40490;BME280;26196;52.302;10.572;2023-05-19T09:17:01;101722.81;;;15.59;44.10
40490;BME280;26196;52.302;10.572;2023-05-19T09:21:02;101714.75;;;15.64;44.21
40490;BME280;26196;52.302;10.572;2023-05-19T09:25:02;101724.31;;;15.68;44.34
40490;BME280;26196;52.302;10.572;2023-05-19T09:29:12;101709.28;;;15.71;44.49
40490;BME280;26196;52.302;10.572;2023-05-19T09:33:18;101706.47;;;15.78;44.42
40490;BME280;26196;52.302;10.572;2023-05-19T09:37:22;101701.09;;;15.81;44.58
40490;BME280;26196;52.302;10.572;2023-05-19T09:41:23;101701.09;;;15.81;44.32
40490;BME280;26196;52.302;10.572;2023-05-19T09:45:25;101699.91;;;15.91;44.25
40490;BME280;26196;52.302;10.572;2023-05-19T09:49:28;101702.47;;;15.94;45.20
40490;BME280;26196;52.302;10.572;2023-05-19T09:53:29;101696.19;;;15.98;44.53
40490;BME280;26196;52.302;10.572;2023-05-19T09:57:33;101693.44;;;16.01;44.19
40490;BME280;26196;52.302;10.572;2023-05-19T10:01:37;101690.69;;;16.04;44.04
40490;BME280;26196;52.302;10.572;2023-05-19T10:05:40;101687.94;;;16.09;43.78
40490;BME280;26196;52.302;10.572;2023-05-19T10:09:41;101677.19;;;16.13;43.56
40490;BME280;26196;52.302;10.572;2023-05-19T10:13:44;101680.66;;;16.15;43.69
40490;BME280;26196;52.302;10.572;2023-05-19T10:17:45;101674.41;;;16.18;43.66
40490;BME280;26196;52.302;10.572;2023-05-19T10:21:45;101668.16;;;16.21;43.39
40490;BME280;26196;52.302;10.572;2023-05-19T10:25:46;101660.22;;;16.22;43.42
40490;BME280;26196;52.302;10.572;2023-05-19T10:29:49;101663.59;;;16.26;43.38
40490;BME280;26196;52.302;10.572;2023-05-19T10:34:03;101656.44;;;16.29;43.68
40490;BME280;26196;52.302;10.572;2023-05-19T10:42:36;101657.09;;;16.36;43.83
40490;BME280;26196;52.302;10.572;2023-05-19T10:46:39;101661.28;;;16.43;43.56
40490;BME280;26196;52.302;10.572;2023-05-19T10:50:51;101638.31;;;16.45;43.59
40490;BME280;26196;52.302;10.572;2023-05-19T10:54:52;101633.75;;;16.50;43.38
40490;BME280;26196;52.302;10.572;2023-05-19T10:58:53;101638.06;;;16.53;43.03
40490;BME280;26196;52.302;10.572;2023-05-19T11:03:11;101632.59;;;16.57;43.24
40490;BME280;26196;52.302;10.572;2023-05-19T11:07:19;101640.38;;;16.62;42.92
40490;BME280;26196;52.302;10.572;2023-05-19T11:11:20;101639.34;;;16.66;43.24
40490;BME280;26196;52.302;10.572;2023-05-19T11:15:24;101636.66;;;16.68;43.15
40490;BME280;26196;52.302;10.572;2023-05-19T11:19:29;101632.13;;;16.71;42.96
40490;BME280;26196;52.302;10.572;2023-05-19T11:23:36;101628.56;;;16.72;43.51
40490;BME280;26196;52.302;10.572;2023-05-19T11:27:38;101631.06;;;16.77;43.20
40490;BME280;26196;52.302;10.572;2023-05-19T11:31:41;101620.34;;;16.81;42.91
40490;BME280;26196;52.302;10.572;2023-05-19T11:35:42;101610.56;;;16.83;43.46
40490;BME280;26196;52.302;10.572;2023-05-19T11:39:46;101610.44;;;16.87;43.29
40490;BME280;26196;52.302;10.572;2023-05-19T11:43:47;101606.78;;;16.91;43.08
40490;BME280;26196;52.302;10.572;2023-05-19T11:47:47;101597.84;;;16.95;43.08
40490;BME280;26196;52.302;10.572;2023-05-19T11:51:47;101592.59;;;16.93;43.21
40490;BME280;26196;52.302;10.572;2023-05-19T11:55:48;101602.03;;;17.00;43.24
40490;BME280;26196;52.302;10.572;2023-05-19T11:59:48;101611.56;;;17.04;43.01
40490;BME280;26196;52.302;10.572;2023-05-19T12:03:51;101606.19;;;17.08;43.21
40490;BME280;26196;52.302;10.572;2023-05-19T12:07:51;101610.44;;;17.12;43.01
40490;BME280;26196;52.302;10.572;2023-05-19T12:11:53;101599.00;;;17.11;42.49
40490;BME280;26196;52.302;10.572;2023-05-19T12:15:58;101611.13;;;17.17;42.93
40490;BME280;26196;52.302;10.572;2023-05-19T12:19:59;101596.06;;;17.19;42.53
40490;BME280;26196;52.302;10.572;2023-05-19T12:24:00;101591.78;;;17.15;42.69
40490;BME280;26196;52.302;10.572;2023-05-19T12:28:01;101597.66;;;17.23;43.93
40490;BME280;26196;52.302;10.572;2023-05-19T12:32:06;101592.28;;;17.26;45.49
40490;BME280;26196;52.302;10.572;2023-05-19T12:36:07;101594.78;;;17.29;47.41
40490;BME280;26196;52.302;10.572;2023-05-19T12:40:08;101588.53;;;17.32;45.77
40490;BME280;26196;52.302;10.572;2023-05-19T12:44:14;101583.16;;;17.33;48.14
40490;BME280;26196;52.302;10.572;2023-05-19T12:48:14;101581.19;;;17.38;45.16
40490;BME280;26196;52.302;10.572;2023-05-19T12:52:16;101591.84;;;17.37;47.54
40490;BME280;26196;52.302;10.572;2023-05-19T12:56:16;101596.84;;;17.44;48.28
40490;BME280;26196;52.302;10.572;2023-05-19T13:00:18;101593.31;;;17.44;47.18
40490;BME280;26196;52.302;10.572;2023-05-19T13:04:25;101585.47;;;17.42;48.64
40490;BME280;26196;52.302;10.572;2023-05-19T13:08:25;101591.44;;;17.47;49.19
40490;BME280;26196;52.302;10.572;2023-05-19T13:12:26;101575.59;;;17.46;48.54
40490;BME280;26196;52.302;10.572;2023-05-19T13:16:27;101567.63;;;17.47;48.51
40490;BME280;26196;52.302;10.572;2023-05-19T13:20:28;101584.06;;;17.56;48.57
40490;BME280;26196;52.302;10.572;2023-05-19T13:24:29;101574.31;;;17.56;48.75
40490;BME280;26196;52.302;10.572;2023-05-19T13:28:29;101575.09;;;17.60;47.01
40490;BME280;26196;52.302;10.572;2023-05-19T13:32:30;101567.16;;;17.60;46.88
40490;BME280;26196;52.302;10.572;2023-05-19T13:36:30;101562.63;;;17.62;47.42
40490;BME280;26196;52.302;10.572;2023-05-19T13:40:32;101551.34;;;17.57;47.76
40490;BME280;26196;52.302;10.572;2023-05-19T13:44:33;101573.13;;;17.65;44.81
40490;BME280;26196;52.302;10.572;2023-05-19T13:48:34;101574.84;;;17.66;46.94
40490;BME280;26196;52.302;10.572;2023-05-19T13:52:34;101564.13;;;17.69;46.67
40490;BME280;26196;52.302;10.572;2023-05-19T13:56:35;101557.25;;;17.65;47.17
40490;BME280;26196;52.302;10.572;2023-05-19T14:00:35;101557.03;;;17.69;47.22
40490;BME280;26196;52.302;10.572;2023-05-19T14:04:37;101564.78;;;17.74;45.85
40490;BME280;26196;52.302;10.572;2023-05-19T14:08:37;101563.84;;;17.75;46.18
40490;BME280;26196;52.302;10.572;2023-05-19T14:12:38;101566.50;;;17.75;46.15
40490;BME280;26196;52.302;10.572;2023-05-19T14:16:39;101555.81;;;17.78;44.96
40490;BME280;26196;52.302;10.572;2023-05-19T14:20:39;101551.38;;;17.79;45.38
40490;BME280;26196;52.302;10.572;2023-05-19T14:24:40;101552.25;;;17.79;44.59
40490;BME280;26196;52.302;10.572;2023-05-19T14:28:41;101552.25;;;17.79;43.20
40490;BME280;26196;52.302;10.572;2023-05-19T14:32:41;101551.28;;;17.82;44.08
40490;BME280;26196;52.302;10.572;2023-05-19T14:36:42;101548.56;;;17.83;43.61
40490;BME280;26196;52.302;10.572;2023-05-19T14:40:44;101529.34;;;17.78;43.63
40490;BME280;26196;52.302;10.572;2023-05-19T14:44:44;101541.41;;;17.85;43.32
40490;BME280;26196;52.302;10.572;2023-05-19T14:48:44;101540.50;;;17.86;43.07
40490;BME280;26196;52.302;10.572;2023-05-19T14:52:45;101537.72;;;17.89;45.29
40490;BME280;26196;52.302;10.572;2023-05-19T14:56:45;101537.72;;;17.89;44.38
40490;BME280;26196;52.302;10.572;2023-05-19T15:00:46;101529.78;;;17.89;44.48
40490;BME280;26196;52.302;10.572;2023-05-19T15:04:47;101535.88;;;17.91;44.56
40490;BME280;26196;52.302;10.572;2023-05-19T15:08:47;101533.22;;;17.91;43.94
40490;BME280;26196;52.302;10.572;2023-05-19T15:12:47;101533.09;;;17.95;46.59
40490;BME280;26196;52.302;10.572;2023-05-19T15:16:48;101533.09;;;17.95;44.20
40490;BME280;26196;52.302;10.572;2023-05-19T15:20:48;101533.09;;;17.95;43.86
40490;BME280;26196;52.302;10.572;2023-05-19T15:24:48;101530.38;;;17.96;44.29
40490;BME280;26196;52.302;10.572;2023-05-19T15:28:50;101527.66;;;17.98;43.92
40490;BME280;26196;52.302;10.572;2023-05-19T15:32:51;101527.84;;;17.93;42.07
40490;BME280;26196;52.302;10.572;2023-05-19T15:36:51;101518.91;;;17.96;41.42
40490;BME280;26196;52.302;10.572;2023-05-19T15:40:52;101524.06;;;17.99;41.35
40490;BME280;26196;52.302;10.572;2023-05-19T15:44:52;101522.22;;;18.01;41.37
40490;BME280;26196;52.302;10.572;2023-05-19T15:48:52;101525.69;;;18.03;41.17
40490;BME280;26196;52.302;10.572;2023-05-19T15:52:53;101525.69;;;18.03;43.12
40490;BME280;26196;52.302;10.572;2023-05-19T15:56:53;101522.09;;;18.04;44.51
40490;BME280;26196;52.302;10.572;2023-05-19T16:00:53;101524.75;;;18.04;44.99
40490;BME280;26196;52.302;10.572;2023-05-19T16:04:54;101513.25;;;18.05;41.75
40490;BME280;26196;52.302;10.572;2023-05-19T16:08:54;101525.56;;;18.06;41.56
40490;BME280;26196;52.302;10.572;2023-05-19T16:12:54;101515.81;;;18.06;43.84
40490;BME280;26196;52.302;10.572;2023-05-19T16:16:55;101508.09;;;18.02;42.34
40490;BME280;26196;52.302;10.572;2023-05-19T16:20:55;101517.56;;;18.07;42.48
40490;BME280;26196;52.302;10.572;2023-05-19T16:24:56;101504.22;;;18.09;41.79
40490;BME280;26196;52.302;10.572;2023-05-19T16:28:56;101509.50;;;18.09;42.35
40490;BME280;26196;52.302;10.572;2023-05-19T16:32:56;101490.06;;;18.10;43.14
40490;BME280;26196;52.302;10.572;2023-05-19T16:36:57;101498.88;;;18.10;43.28
40490;BME280;26196;52.302;10.572;2023-05-19T16:40:57;101485.69;;;18.09;40.97
40490;BME280;26196;52.302;10.572;2023-05-19T16:44:57;101482.91;;;18.12;41.32
40490;BME280;26196;52.302;10.572;2023-05-19T16:48:58;101482.84;;;18.13;42.18
40490;BME280;26196;52.302;10.572;2023-05-19T16:52:58;101486.47;;;18.11;41.23
40490;BME280;26196;52.302;10.572;2023-05-19T16:56:59;101482.16;;;18.08;40.71
40490;BME280;26196;52.302;10.572;2023-05-19T17:00:59;101496.06;;;18.13;41.87
40490;BME280;26196;52.302;10.572;2023-05-19T17:05:00;101498.69;;;18.15;42.33
40490;BME280;26196;52.302;10.572;2023-05-19T17:09:00;101497.06;;;18.11;43.37
40490;BME280;26196;52.302;10.572;2023-05-19T17:13:01;101496.03;;;18.15;42.55
40490;BME280;26196;52.302;10.572;2023-05-19T17:17:01;101489.97;;;18.11;43.05
40490;BME280;26196;52.302;10.572;2023-05-19T17:21:02;101488.94;;;18.15;42.65
40490;BME280;26196;52.302;10.572;2023-05-19T17:25:05;101498.59;;;18.17;42.68
40490;BME280;26196;52.302;10.572;2023-05-19T17:29:05;101505.69;;;18.16;42.36
40490;BME280;26196;52.302;10.572;2023-05-19T17:33:06;101511.00;;;18.16;43.42
40490;BME280;26196;52.302;10.572;2023-05-19T17:37:06;101495.94;;;18.17;43.36
40490;BME280;26196;52.302;10.572;2023-05-19T17:41:07;101497.75;;;18.16;43.44
40490;BME280;26196;52.302;10.572;2023-05-19T17:45:13;101509.13;;;18.18;43.23
40490;BME280;26196;52.302;10.572;2023-05-19T17:49:13;101499.47;;;18.17;42.72
40490;BME280;26196;52.302;10.572;2023-05-19T17:53:14;101503.84;;;18.18;43.17
40490;BME280;26196;52.302;10.572;2023-05-19T17:57:15;101507.44;;;18.17;43.06
40490;BME280;26196;52.302;10.572;2023-05-19T18:01:17;101506.53;;;18.17;42.88
40490;BME280;26196;52.302;10.572;2023-05-19T18:05:19;101502.13;;;18.17;43.21
40490;BME280;26196;52.302;10.572;2023-05-19T18:09:22;101495.88;;;18.18;42.47
40490;BME280;26196;52.302;10.572;2023-05-19T18:13:23;101501.19;;;18.18;42.97
40490;BME280;26196;52.302;10.572;2023-05-19T18:17:25;101484.75;;;18.10;42.95
40490;BME280;26196;52.302;10.572;2023-05-19T18:21:25;101493.25;;;18.18;42.90
40490;BME280;26196;52.302;10.572;2023-05-19T18:25:26;101492.25;;;18.21;43.71
40490;BME280;26196;52.302;10.572;2023-05-19T18:29:26;101495.88;;;18.18;43.77
40490;BME280;26196;52.302;10.572;2023-05-19T18:33:27;101499.47;;;18.17;43.80
40490;BME280;26196;52.302;10.572;2023-05-19T18:37:27;101496.94;;;18.14;44.04
40490;BME280;26196;52.302;10.572;2023-05-19T18:41:28;101504.69;;;18.19;43.45
40490;BME280;26196;52.302;10.572;2023-05-19T18:45:28;101502.75;;;18.22;42.28
40490;BME280;26196;52.302;10.572;2023-05-19T18:49:29;101508.06;;;18.22;44.07
40490;BME280;26196;52.302;10.572;2023-05-19T18:53:32;101517.88;;;18.20;43.61
40490;BME280;26196;52.302;10.572;2023-05-19T18:57:33;101515.25;;;18.20;44.38
40490;BME280;26196;52.302;10.572;2023-05-19T19:01:34;101519.69;;;18.20;43.93
40490;BME280;26196;52.302;10.572;2023-05-19T19:05:34;101522.34;;;18.20;44.18
40490;BME280;26196;52.302;10.572;2023-05-19T19:09:35;101518.94;;;18.16;44.01
40490;BME280;26196;52.302;10.572;2023-05-19T19:13:36;101521.44;;;18.19;43.93
40490;BME280;26196;52.302;10.572;2023-05-19T19:17:37;101524.22;;;18.16;44.03
40490;BME280;26196;52.302;10.572;2023-05-19T19:21:38;101525.03;;;18.18;43.90
40490;BME280;26196;52.302;10.572;2023-05-19T19:25:39;101534.78;;;18.18;43.94
40490;BME280;26196;52.302;10.572;2023-05-19T19:29:39;101533.13;;;18.15;44.28
40490;BME280;26196;52.302;10.572;2023-05-19T19:33:40;101525.41;;;18.09;43.63
40490;BME280;26196;52.302;10.572;2023-05-19T19:37:42;101538.34;;;18.17;44.51
40490;BME280;26196;52.302;10.572;2023-05-19T19:41:42;101552.53;;;18.15;43.55
40490;BME280;26196;52.302;10.572;2023-05-19T19:45:43;101542.19;;;18.09;43.59
40490;BME280;26196;52.302;10.572;2023-05-19T19:49:43;101553.38;;;18.16;43.70
40490;BME280;26196;52.302;10.572;2023-05-19T19:53:45;101557.81;;;18.15;43.05
40490;BME280;26196;52.302;10.572;2023-05-19T19:57:45;101556.97;;;18.15;42.83
40490;BME280;26196;52.302;10.572;2023-05-19T20:01:48;101551.91;;;18.09;42.55
40490;BME280;26196;52.302;10.572;2023-05-19T20:05:48;101564.13;;;18.13;43.00
40490;BME280;26196;52.302;10.572;2023-05-19T20:09:49;101568.47;;;18.14;42.68
40490;BME280;26196;52.302;10.572;2023-05-19T20:13:51;101568.59;;;18.11;42.88
40490;BME280;26196;52.302;10.572;2023-05-19T20:17:52;101568.56;;;18.12;43.06
40490;BME280;26196;52.302;10.572;2023-05-19T20:21:52;101560.84;;;18.06;43.39
40490;BME280;26196;52.302;10.572;2023-05-19T20:25:52;101574.72;;;18.13;42.96
40490;BME280;26196;52.302;10.572;2023-05-19T20:29:53;101577.50;;;18.10;43.45
40490;BME280;26196;52.302;10.572;2023-05-19T20:33:53;101573.25;;;18.06;43.83
40490;BME280;26196;52.302;10.572;2023-05-19T20:37:54;101576.81;;;18.05;43.40
40490;BME280;26196;52.302;10.572;2023-05-19T20:41:54;101584.59;;;18.09;43.01
40490;BME280;26196;52.302;10.572;2023-05-19T20:45:55;101577.69;;;18.05;43.27
40490;BME280;26196;52.302;10.572;2023-05-19T20:49:55;101577.81;;;18.02;43.70
40490;BME280;26196;52.302;10.572;2023-05-19T20:53:57;101576.03;;;18.03;43.54
40490;BME280;26196;52.302;10.572;2023-05-19T20:57:59;101588.47;;;18.01;42.84
40490;BME280;26196;52.302;10.572;2023-05-19T21:01:59;101587.72;;;17.97;43.01
40490;BME280;26196;52.302;10.572;2023-05-19T21:06:00;101593.72;;;18.02;43.19